Southport, FL

1:16 PM CDT on July 24, 2016 (GMT -0500)
Northwest Florida Beaches International | | Change Station

Elev 69 ft 30.36 °N, 85.80 °W | Updated 23 minutes ago

Mostly Cloudy
Mostly Cloudy
89 °F
Feels Like 98 °F
N
6
Wind Variable Wind from East

Today
High -- | Low -- °F
--% Chance of Precip.
Yesterday
High -- | Low -- °F
Precip. -- in
Pressure 30.04 in
Visibility 10.0 miles
Clouds Mostly Cloudy 3000 ft
Heat Index 98 °F
Dew Point 74 °F
Humidity 61%
Rainfall 0.00 in
Snow Depth Not available.
5:57 AM 7:42 PM
Waning Gibbous, 74% visible
METAR KECP 241753Z 09005KT 10SM BKN030 32/23 A3000 RMK AO2 LTG DSNT S-W SLP170 T03170233 10322 20250 58005
Pressure 30.04 in
Visibility 10.0 miles
Clouds Mostly Cloudy 3000 ft
Heat Index 98 °F
Dew Point 74 °F
Humidity 61%
Rainfall 0.00 in
Snow Depth Not available.
5:57 AM 7:42 PM
Waning Gibbous, 74% visible
METAR KECP 241753Z 09005KT 10SM BKN030 32/23 A3000 RMK AO2 LTG DSNT S-W SLP170 T03170233 10322 20250 58005

10-Day Weather Forecast

Almanac

Astronomy

Jul. 24, 2016 Rise Set
Actual Time
Civil Twilight
Nautical Twilight
Astronomical Twilight
Moon
Length of Visible Light
Length of Day
Tomorrow will be .
, % of the Moon is Illuminated

Today's Extremes

State Highs State Lows

Community

WunderPhotos

Upload Photos

1,927,143 photos uploaded!

WunderBlog® & News

Nearby

Air Quality

  Air Quality AQ Index Pollutant
Not available.

Snow Depth

Station Depth Elevation

Earthquake Activity

City Distance Mag. Time & Date
Minimum magnitude displayed is 2.5.

Coastal Water Temperatures

Place Temperature

Stations

Nearby Weather Stations

Station Location Temp. Windchill Dew Point Humidity Wind Precip. Elev Updated Type
                   

Watches & Warnings

There are currently no watches in effect.